KMAN

Nampa Municipal Airport

Nampa, Idaho, USA

KMAN 110855Z AUTO 15003KT 10SM OVC014 M03/M04 A3069 RMK A01

Observed Flight Rules
Dec-11 @ 08:55 UTC (17 minutes ago) Marginal Visual Flight Rules
Wind Visibility Clouds
150° at 3 knots 10 miles
  • Overcast at 1,400' AGL
Temperatures Readings
Current -3°C / 27°F
Dewpoint -4°C / 25°F
Humidity 93%
Altimeter 30.69" Hg
Pressure 1039 hPa
Elevation 774
Observed Flight Rules
Dec-11 @ 08:55 UTC
(17 minutes ago)
MVFR
Wind Visibility
150° at 3 knots 10 miles
Clouds
  • Overcast at 1,400' AGL
Temperature Dewpoint
-3°C / 27°F -4°C / 25°F
Humidity Altimeter Pressure
93% 30.69" Hg 1039 hPa